createdAt,value
2022-12-23T00:03:39.621Z,20.45
2022-12-23T00:18:43.053Z,20.45
2022-12-23T00:33:47.133Z,19.95
2022-12-23T00:49:07.509Z,21.02
2022-12-23T01:04:32.168Z,21.17
2022-12-23T01:19:34.917Z,20.77
2022-12-23T01:34:37.746Z,18.50
2022-12-23T01:49:41.269Z,16.40
2022-12-23T02:04:43.848Z,14.65
2022-12-23T02:19:51.689Z,16.02
2022-12-23T02:35:01.092Z,14.73
2022-12-23T02:50:26.547Z,13.18
2022-12-23T03:05:34.068Z,13.88
2022-12-23T03:21:05.150Z,16.27
2022-12-23T03:36:15.949Z,14.75
2022-12-23T03:51:22.898Z,16.35
2022-12-23T04:06:31.345Z,17.00
2022-12-23T04:21:33.287Z,18.60
2022-12-23T04:36:35.313Z,21.63
2022-12-23T04:51:37.291Z,21.17
2022-12-23T05:06:39.307Z,21.25
2022-12-23T05:21:41.231Z,20.83
2022-12-23T05:36:43.149Z,20.63
2022-12-23T05:51:45.070Z,21.45
2022-12-23T06:06:47.058Z,48.08
2022-12-23T06:21:48.979Z,17.27
2022-12-23T06:36:50.987Z,14.95
2022-12-23T06:51:52.929Z,16.35
2022-12-23T07:06:54.927Z,16.00
2022-12-23T07:21:57.047Z,15.10
2022-12-23T07:36:59.066Z,15.07
2022-12-23T07:52:01.024Z,15.85
2022-12-23T08:07:02.985Z,15.98
2022-12-23T08:22:04.947Z,18.10
2022-12-23T08:37:07.267Z,19.52
2022-12-23T08:52:09.228Z,19.42
2022-12-23T09:07:11.184Z,20.67
2022-12-23T09:22:13.943Z,22.65
2022-12-23T09:37:17.113Z,22.20
2022-12-23T09:52:43.787Z,23.30
2022-12-23T10:08:13.208Z,20.77
2022-12-23T10:23:28.659Z,21.60
2022-12-23T10:38:33.409Z,21.30
2022-12-23T10:53:47.071Z,21.45
2022-12-23T11:08:51.188Z,22.63
2022-12-23T11:24:16.690Z,19.80
2022-12-23T11:39:29.167Z,20.95
2022-12-23T11:54:31.811Z,27.83
2022-12-23T12:09:35.089Z,20.52
2022-12-23T12:24:45.125Z,37.03
2022-12-23T12:39:55.242Z,153.90
2022-12-23T12:55:04.209Z,200.83
2022-12-23T13:10:06.125Z,86.72
2022-12-23T13:25:17.850Z,56.33
2022-12-23T13:40:28.954Z,42.20
2022-12-23T13:55:49.811Z,103.68
2022-12-23T14:10:57.855Z,42.50
2022-12-23T14:26:24.307Z,32.50
2022-12-23T14:41:43.718Z,29.92
2022-12-23T14:57:04.596Z,23.52
2022-12-23T15:12:16.367Z,32.47
2022-12-23T15:27:29.459Z,21.73
2022-12-23T15:42:32.230Z,24.77
2022-12-23T15:57:34.430Z,27.45
2022-12-23T16:12:37.295Z,25.98
2022-12-23T16:27:44.168Z,25.13
2022-12-23T16:42:46.150Z,18.88
2022-12-23T16:57:48.109Z,12.80
2022-12-23T17:12:51.140Z,15.13
2022-12-23T17:27:53.949Z,12.07
2022-12-23T17:42:55.966Z,10.88
2022-12-23T17:57:57.987Z,12.98
2022-12-23T18:13:02.902Z,12.27
2022-12-23T18:28:05.338Z,10.70
2022-12-23T18:43:16.227Z,9.85
2022-12-23T18:58:18.586Z,10.55
2022-12-23T19:13:20.870Z,17.60
2022-12-23T19:28:23.287Z,13.55
2022-12-23T19:43:25.255Z,16.23
2022-12-23T19:58:28.976Z,19.88
2022-12-23T20:13:31.068Z,23.73
2022-12-23T20:28:33.887Z,23.17
2022-12-23T20:43:36.417Z,24.42
2022-12-23T20:58:57.682Z,21.85
2022-12-23T21:14:06.883Z,24.35
2022-12-23T21:29:10.747Z,19.90
2022-12-23T21:44:16.268Z,21.70
2022-12-23T21:59:18.269Z,18.65
2022-12-23T22:14:20.248Z,20.80
2022-12-23T22:29:22.205Z,19.38
2022-12-23T22:44:24.257Z,20.00
2022-12-23T22:59:26.605Z,18.40
2022-12-23T23:14:28.607Z,20.58
2022-12-23T23:29:30.692Z,19.48
2022-12-23T23:44:32.628Z,20.05
2022-12-23T23:59:34.547Z,21.52
